sensor_id;sensor_type;location;lat;lon;timestamp;P1;durP1;ratioP1;P2;durP2;ratioP2
32663;SDS011;19847;48.670;9.242;2022-07-23T00:02:51;12.07;;;4.45;;
32663;SDS011;19847;48.670;9.242;2022-07-23T00:06:13;6.68;;;3.90;;
32663;SDS011;19847;48.670;9.242;2022-07-23T00:09:35;7.30;;;4.10;;
32663;SDS011;19847;48.670;9.242;2022-07-23T00:12:57;6.50;;;4.03;;
32663;SDS011;19847;48.670;9.242;2022-07-23T00:16:19;5.32;;;4.30;;
32663;SDS011;19847;48.670;9.242;2022-07-23T00:19:42;5.22;;;3.85;;
32663;SDS011;19847;48.670;9.242;2022-07-23T00:23:04;4.57;;;3.47;;
32663;SDS011;19847;48.670;9.242;2022-07-23T00:26:26;4.50;;;3.45;;
32663;SDS011;19847;48.670;9.242;2022-07-23T00:29:47;8.88;;;3.90;;
32663;SDS011;19847;48.670;9.242;2022-07-23T00:33:10;7.30;;;4.00;;
32663;SDS011;19847;48.670;9.242;2022-07-23T00:36:33;5.28;;;4.13;;
32663;SDS011;19847;48.670;9.242;2022-07-23T00:39:55;6.68;;;4.43;;
32663;SDS011;19847;48.670;9.242;2022-07-23T00:43:19;6.05;;;3.78;;
32663;SDS011;19847;48.670;9.242;2022-07-23T00:46:44;4.35;;;3.33;;
32663;SDS011;19847;48.670;9.242;2022-07-23T00:50:08;5.97;;;2.85;;
32663;SDS011;19847;48.670;9.242;2022-07-23T00:53:32;3.10;;;2.65;;
32663;SDS011;19847;48.670;9.242;2022-07-23T00:56:54;3.38;;;3.05;;
32663;SDS011;19847;48.670;9.242;2022-07-23T01:00:17;4.68;;;3.30;;
32663;SDS011;19847;48.670;9.242;2022-07-23T01:03:39;4.60;;;3.45;;
32663;SDS011;19847;48.670;9.242;2022-07-23T01:07:01;3.85;;;3.50;;
32663;SDS011;19847;48.670;9.242;2022-07-23T01:10:25;3.70;;;3.00;;
32663;SDS011;19847;48.670;9.242;2022-07-23T01:13:47;6.20;;;2.92;;
32663;SDS011;19847;48.670;9.242;2022-07-23T01:17:09;6.65;;;3.03;;
32663;SDS011;19847;48.670;9.242;2022-07-23T01:20:31;4.70;;;3.53;;
32663;SDS011;19847;48.670;9.242;2022-07-23T01:23:55;5.25;;;3.53;;
32663;SDS011;19847;48.670;9.242;2022-07-23T01:27:17;4.65;;;3.13;;
32663;SDS011;19847;48.670;9.242;2022-07-23T01:30:40;3.97;;;3.33;;
32663;SDS011;19847;48.670;9.242;2022-07-23T01:34:02;5.85;;;3.10;;
32663;SDS011;19847;48.670;9.242;2022-07-23T01:37:25;5.40;;;2.92;;
32663;SDS011;19847;48.670;9.242;2022-07-23T01:40:49;4.90;;;3.65;;
32663;SDS011;19847;48.670;9.242;2022-07-23T01:44:17;5.57;;;3.22;;
32663;SDS011;19847;48.670;9.242;2022-07-23T01:47:39;8.80;;;3.67;;
32663;SDS011;19847;48.670;9.242;2022-07-23T01:51:00;5.20;;;3.05;;
32663;SDS011;19847;48.670;9.242;2022-07-23T01:54:34;6.00;;;3.45;;
32663;SDS011;19847;48.670;9.242;2022-07-23T01:58:00;7.00;;;3.20;;
32663;SDS011;19847;48.670;9.242;2022-07-23T02:01:23;4.68;;;3.38;;
32663;SDS011;19847;48.670;9.242;2022-07-23T02:04:45;2.90;;;2.63;;
32663;SDS011;19847;48.670;9.242;2022-07-23T02:08:09;5.63;;;3.22;;
32663;SDS011;19847;48.670;9.242;2022-07-23T02:11:31;6.85;;;3.38;;
32663;SDS011;19847;48.670;9.242;2022-07-23T02:14:55;4.53;;;3.17;;
32663;SDS011;19847;48.670;9.242;2022-07-23T02:18:19;4.20;;;3.20;;
32663;SDS011;19847;48.670;9.242;2022-07-23T02:21:41;5.25;;;3.50;;
32663;SDS011;19847;48.670;9.242;2022-07-23T02:25:03;3.10;;;2.88;;
32663;SDS011;19847;48.670;9.242;2022-07-23T02:28:25;5.38;;;4.05;;
32663;SDS011;19847;48.670;9.242;2022-07-23T02:31:49;3.40;;;2.92;;
32663;SDS011;19847;48.670;9.242;2022-07-23T02:35:11;4.20;;;3.35;;
32663;SDS011;19847;48.670;9.242;2022-07-23T02:38:33;5.53;;;3.17;;
32663;SDS011;19847;48.670;9.242;2022-07-23T02:41:55;7.05;;;3.88;;
32663;SDS011;19847;48.670;9.242;2022-07-23T02:45:17;3.42;;;2.72;;
32663;SDS011;19847;48.670;9.242;2022-07-23T02:48:41;7.20;;;3.60;;
32663;SDS011;19847;48.670;9.242;2022-07-23T02:52:03;4.82;;;3.33;;
32663;SDS011;19847;48.670;9.242;2022-07-23T02:55:26;4.45;;;3.33;;
32663;SDS011;19847;48.670;9.242;2022-07-23T02:58:48;5.85;;;3.42;;
32663;SDS011;19847;48.670;9.242;2022-07-23T03:02:10;13.85;;;4.05;;
32663;SDS011;19847;48.670;9.242;2022-07-23T03:05:33;3.65;;;3.30;;
32663;SDS011;19847;48.670;9.242;2022-07-23T03:08:55;4.20;;;3.50;;
32663;SDS011;19847;48.670;9.242;2022-07-23T03:12:18;7.80;;;4.13;;
32663;SDS011;19847;48.670;9.242;2022-07-23T03:15:39;6.50;;;3.55;;
32663;SDS011;19847;48.670;9.242;2022-07-23T03:19:02;4.15;;;3.75;;
32663;SDS011;19847;48.670;9.242;2022-07-23T03:22:28;3.90;;;3.42;;
32663;SDS011;19847;48.670;9.242;2022-07-23T03:25:50;4.47;;;3.60;;
32663;SDS011;19847;48.670;9.242;2022-07-23T03:29:15;5.60;;;3.50;;
32663;SDS011;19847;48.670;9.242;2022-07-23T03:32:37;3.83;;;3.10;;
32663;SDS011;19847;48.670;9.242;2022-07-23T03:35:59;4.20;;;3.80;;
32663;SDS011;19847;48.670;9.242;2022-07-23T03:39:26;6.47;;;3.75;;
32663;SDS011;19847;48.670;9.242;2022-07-23T03:42:48;5.28;;;3.92;;
32663;SDS011;19847;48.670;9.242;2022-07-23T03:46:10;4.15;;;3.05;;
32663;SDS011;19847;48.670;9.242;2022-07-23T03:49:32;5.28;;;3.72;;
32663;SDS011;19847;48.670;9.242;2022-07-23T03:52:55;5.05;;;4.55;;
32663;SDS011;19847;48.670;9.242;2022-07-23T03:56:18;4.78;;;4.20;;
32663;SDS011;19847;48.670;9.242;2022-07-23T03:59:40;4.22;;;3.83;;
32663;SDS011;19847;48.670;9.242;2022-07-23T04:03:02;6.18;;;3.83;;
32663;SDS011;19847;48.670;9.242;2022-07-23T04:06:24;5.47;;;4.60;;
32663;SDS011;19847;48.670;9.242;2022-07-23T04:09:47;7.60;;;4.35;;
32663;SDS011;19847;48.670;9.242;2022-07-23T04:13:10;6.43;;;4.10;;
32663;SDS011;19847;48.670;9.242;2022-07-23T04:16:32;6.22;;;4.13;;
32663;SDS011;19847;48.670;9.242;2022-07-23T04:19:54;8.20;;;3.70;;
32663;SDS011;19847;48.670;9.242;2022-07-23T04:23:19;4.40;;;4.00;;
32663;SDS011;19847;48.670;9.242;2022-07-23T04:26:41;6.97;;;4.70;;
32663;SDS011;19847;48.670;9.242;2022-07-23T04:30:05;5.43;;;4.40;;
32663;SDS011;19847;48.670;9.242;2022-07-23T04:33:28;4.85;;;4.13;;
32663;SDS011;19847;48.670;9.242;2022-07-23T04:36:52;6.25;;;5.00;;
32663;SDS011;19847;48.670;9.242;2022-07-23T04:40:14;11.48;;;5.78;;
32663;SDS011;19847;48.670;9.242;2022-07-23T04:43:37;8.88;;;7.40;;
32663;SDS011;19847;48.670;9.242;2022-07-23T04:47:01;10.40;;;5.13;;
32663;SDS011;19847;48.670;9.242;2022-07-23T04:50:23;5.63;;;5.00;;
32663;SDS011;19847;48.670;9.242;2022-07-23T04:53:50;9.25;;;6.18;;
32663;SDS011;19847;48.670;9.242;2022-07-23T04:57:11;12.82;;;5.68;;
32663;SDS011;19847;48.670;9.242;2022-07-23T05:00:34;7.85;;;4.72;;
32663;SDS011;19847;48.670;9.242;2022-07-23T05:03:58;7.43;;;5.25;;
32663;SDS011;19847;48.670;9.242;2022-07-23T05:07:25;10.18;;;5.80;;
32663;SDS011;19847;48.670;9.242;2022-07-23T05:10:47;7.85;;;5.25;;
32663;SDS011;19847;48.670;9.242;2022-07-23T05:14:10;9.55;;;4.82;;
32663;SDS011;19847;48.670;9.242;2022-07-23T05:17:31;14.60;;;5.45;;
32663;SDS011;19847;48.670;9.242;2022-07-23T05:20:58;5.63;;;5.13;;
32663;SDS011;19847;48.670;9.242;2022-07-23T05:24:19;8.55;;;5.13;;
32663;SDS011;19847;48.670;9.242;2022-07-23T05:27:42;8.55;;;4.75;;
32663;SDS011;19847;48.670;9.242;2022-07-23T05:31:04;5.72;;;5.18;;
32663;SDS011;19847;48.670;9.242;2022-07-23T05:34:27;12.30;;;4.93;;
32663;SDS011;19847;48.670;9.242;2022-07-23T05:37:51;9.52;;;4.93;;
32663;SDS011;19847;48.670;9.242;2022-07-23T05:41:13;8.23;;;4.78;;
32663;SDS011;19847;48.670;9.242;2022-07-23T05:44:35;6.30;;;4.82;;
32663;SDS011;19847;48.670;9.242;2022-07-23T05:47:58;10.40;;;5.47;;
32663;SDS011;19847;48.670;9.242;2022-07-23T05:51:26;6.15;;;4.53;;
32663;SDS011;19847;48.670;9.242;2022-07-23T05:54:49;6.93;;;4.32;;
32663;SDS011;19847;48.670;9.242;2022-07-23T05:58:11;13.30;;;5.00;;
32663;SDS011;19847;48.670;9.242;2022-07-23T06:01:33;7.97;;;5.72;;
32663;SDS011;19847;48.670;9.242;2022-07-23T06:05:04;7.85;;;4.40;;
32663;SDS011;19847;48.670;9.242;2022-07-23T06:08:30;5.63;;;4.90;;
32663;SDS011;19847;48.670;9.242;2022-07-23T06:11:55;5.93;;;4.88;;
32663;SDS011;19847;48.670;9.242;2022-07-23T06:15:17;7.32;;;5.18;;
32663;SDS011;19847;48.670;9.242;2022-07-23T06:18:40;7.63;;;4.40;;
32663;SDS011;19847;48.670;9.242;2022-07-23T06:22:02;8.00;;;4.72;;
32663;SDS011;19847;48.670;9.242;2022-07-23T06:25:24;6.00;;;4.45;;
32663;SDS011;19847;48.670;9.242;2022-07-23T06:28:47;8.73;;;4.30;;
32663;SDS011;19847;48.670;9.242;2022-07-23T06:32:09;11.07;;;4.53;;
32663;SDS011;19847;48.670;9.242;2022-07-23T06:35:31;9.70;;;4.35;;
32663;SDS011;19847;48.670;9.242;2022-07-23T06:38:53;6.78;;;4.55;;
32663;SDS011;19847;48.670;9.242;2022-07-23T06:42:15;6.05;;;3.60;;
32663;SDS011;19847;48.670;9.242;2022-07-23T06:45:40;6.13;;;3.55;;
32663;SDS011;19847;48.670;9.242;2022-07-23T06:49:02;7.20;;;4.25;;
32663;SDS011;19847;48.670;9.242;2022-07-23T06:52:25;8.65;;;4.43;;
32663;SDS011;19847;48.670;9.242;2022-07-23T06:55:47;6.65;;;4.05;;
32663;SDS011;19847;48.670;9.242;2022-07-23T06:59:09;6.13;;;4.13;;
32663;SDS011;19847;48.670;9.242;2022-07-23T07:02:32;6.18;;;4.40;;
32663;SDS011;19847;48.670;9.242;2022-07-23T07:05:54;4.53;;;3.92;;
32663;SDS011;19847;48.670;9.242;2022-07-23T07:09:16;9.07;;;4.20;;
32663;SDS011;19847;48.670;9.242;2022-07-23T07:12:38;5.00;;;4.30;;
32663;SDS011;19847;48.670;9.242;2022-07-23T07:16:00;5.70;;;4.20;;
32663;SDS011;19847;48.670;9.242;2022-07-23T07:19:23;7.15;;;4.38;;
32663;SDS011;19847;48.670;9.242;2022-07-23T07:22:45;5.35;;;4.68;;
32663;SDS011;19847;48.670;9.242;2022-07-23T07:26:07;8.65;;;5.05;;
32663;SDS011;19847;48.670;9.242;2022-07-23T07:29:29;5.18;;;3.90;;
32663;SDS011;19847;48.670;9.242;2022-07-23T07:32:51;4.57;;;3.95;;
32663;SDS011;19847;48.670;9.242;2022-07-23T07:36:19;7.35;;;4.00;;
32663;SDS011;19847;48.670;9.242;2022-07-23T07:39:41;6.85;;;3.58;;
32663;SDS011;19847;48.670;9.242;2022-07-23T07:43:03;4.72;;;3.85;;
32663;SDS011;19847;48.670;9.242;2022-07-23T07:46:25;5.80;;;3.42;;
32663;SDS011;19847;48.670;9.242;2022-07-23T07:49:47;5.75;;;3.70;;
32663;SDS011;19847;48.670;9.242;2022-07-23T07:53:10;4.28;;;3.42;;
32663;SDS011;19847;48.670;9.242;2022-07-23T07:56:32;4.90;;;3.80;;
32663;SDS011;19847;48.670;9.242;2022-07-23T07:59:54;5.13;;;3.88;;
32663;SDS011;19847;48.670;9.242;2022-07-23T08:03:17;7.10;;;4.70;;
32663;SDS011;19847;48.670;9.242;2022-07-23T08:06:40;5.88;;;3.85;;
32663;SDS011;19847;48.670;9.242;2022-07-23T08:10:03;4.88;;;3.80;;
32663;SDS011;19847;48.670;9.242;2022-07-23T08:13:26;6.60;;;3.92;;
32663;SDS011;19847;48.670;9.242;2022-07-23T08:16:47;4.03;;;3.58;;
32663;SDS011;19847;48.670;9.242;2022-07-23T08:20:29;7.93;;;4.43;;
32663;SDS011;19847;48.670;9.242;2022-07-23T08:23:51;6.40;;;4.03;;
32663;SDS011;19847;48.670;9.242;2022-07-23T08:27:14;6.15;;;4.22;;
32663;SDS011;19847;48.670;9.242;2022-07-23T08:30:37;3.85;;;3.35;;
32663;SDS011;19847;48.670;9.242;2022-07-23T08:33:59;9.57;;;4.28;;
32663;SDS011;19847;48.670;9.242;2022-07-23T08:37:22;5.40;;;3.55;;
32663;SDS011;19847;48.670;9.242;2022-07-23T08:40:45;4.88;;;4.45;;
32663;SDS011;19847;48.670;9.242;2022-07-23T08:44:10;7.43;;;4.47;;
32663;SDS011;19847;48.670;9.242;2022-07-23T08:47:32;4.72;;;4.20;;
32663;SDS011;19847;48.670;9.242;2022-07-23T08:50:55;5.50;;;4.50;;
32663;SDS011;19847;48.670;9.242;2022-07-23T08:54:18;3.87;;;3.13;;
32663;SDS011;19847;48.670;9.242;2022-07-23T08:57:41;4.55;;;3.58;;
32663;SDS011;19847;48.670;9.242;2022-07-23T09:01:04;6.55;;;4.05;;
32663;SDS011;19847;48.670;9.242;2022-07-23T09:04:26;4.88;;;3.53;;
32663;SDS011;19847;48.670;9.242;2022-07-23T09:08:03;7.30;;;4.03;;
32663;SDS011;19847;48.670;9.242;2022-07-23T09:11:28;4.45;;;3.83;;
32663;SDS011;19847;48.670;9.242;2022-07-23T09:14:50;7.93;;;3.88;;
32663;SDS011;19847;48.670;9.242;2022-07-23T09:18:14;5.72;;;4.35;;
32663;SDS011;19847;48.670;9.242;2022-07-23T09:25:02;3.95;;;3.55;;
32663;SDS011;19847;48.670;9.242;2022-07-23T09:28:45;4.38;;;3.97;;
32663;SDS011;19847;48.670;9.242;2022-07-23T09:32:13;15.45;;;4.35;;
32663;SDS011;19847;48.670;9.242;2022-07-23T09:35:46;9.50;;;4.15;;
32663;SDS011;19847;48.670;9.242;2022-07-23T09:39:10;5.95;;;4.10;;
32663;SDS011;19847;48.670;9.242;2022-07-23T09:42:33;4.78;;;3.90;;
32663;SDS011;19847;48.670;9.242;2022-07-23T09:46:00;5.65;;;4.15;;
32663;SDS011;19847;48.670;9.242;2022-07-23T09:49:38;6.07;;;4.13;;
32663;SDS011;19847;48.670;9.242;2022-07-23T09:53:01;11.52;;;4.38;;
32663;SDS011;19847;48.670;9.242;2022-07-23T09:56:23;5.20;;;3.65;;
32663;SDS011;19847;48.670;9.242;2022-07-23T09:59:48;4.90;;;4.40;;
32663;SDS011;19847;48.670;9.242;2022-07-23T10:03:10;4.32;;;3.88;;
32663;SDS011;19847;48.670;9.242;2022-07-23T10:06:53;6.65;;;4.47;;
32663;SDS011;19847;48.670;9.242;2022-07-23T10:10:35;4.78;;;4.20;;
32663;SDS011;19847;48.670;9.242;2022-07-23T10:14:17;15.38;;;4.25;;
32663;SDS011;19847;48.670;9.242;2022-07-23T10:17:50;4.40;;;3.95;;
32663;SDS011;19847;48.670;9.242;2022-07-23T10:21:12;5.82;;;4.10;;
32663;SDS011;19847;48.670;9.242;2022-07-23T10:24:47;5.18;;;3.72;;
32663;SDS011;19847;48.670;9.242;2022-07-23T10:28:22;5.53;;;4.95;;
32663;SDS011;19847;48.670;9.242;2022-07-23T10:32:02;9.90;;;4.45;;
32663;SDS011;19847;48.670;9.242;2022-07-23T10:35:31;5.43;;;4.72;;
32663;SDS011;19847;48.670;9.242;2022-07-23T10:39:02;7.30;;;4.22;;
32663;SDS011;19847;48.670;9.242;2022-07-23T10:42:29;8.52;;;4.45;;
32663;SDS011;19847;48.670;9.242;2022-07-23T10:45:57;8.88;;;5.00;;
32663;SDS011;19847;48.670;9.242;2022-07-23T10:49:46;5.07;;;4.55;;
32663;SDS011;19847;48.670;9.242;2022-07-23T10:53:12;7.25;;;3.85;;
32663;SDS011;19847;48.670;9.242;2022-07-23T10:57:04;5.53;;;4.60;;
32663;SDS011;19847;48.670;9.242;2022-07-23T11:00:28;4.80;;;4.10;;
32663;SDS011;19847;48.670;9.242;2022-07-23T11:03:56;6.15;;;4.80;;
32663;SDS011;19847;48.670;9.242;2022-07-23T11:07:18;7.22;;;4.93;;
32663;SDS011;19847;48.670;9.242;2022-07-23T11:10:43;7.37;;;4.80;;
32663;SDS011;19847;48.670;9.242;2022-07-23T11:14:07;6.63;;;4.88;;
32663;SDS011;19847;48.670;9.242;2022-07-23T11:17:29;4.55;;;4.15;;
32663;SDS011;19847;48.670;9.242;2022-07-23T11:20:53;4.63;;;4.07;;
32663;SDS011;19847;48.670;9.242;2022-07-23T11:24:24;5.90;;;4.30;;
32663;SDS011;19847;48.670;9.242;2022-07-23T11:27:46;9.18;;;4.45;;
32663;SDS011;19847;48.670;9.242;2022-07-23T11:31:16;7.32;;;3.95;;
32663;SDS011;19847;48.670;9.242;2022-07-23T11:34:40;5.50;;;4.30;;
32663;SDS011;19847;48.670;9.242;2022-07-23T11:38:05;7.22;;;4.90;;
32663;SDS011;19847;48.670;9.242;2022-07-23T11:41:28;6.68;;;5.35;;
32663;SDS011;19847;48.670;9.242;2022-07-23T11:45:05;6.03;;;4.50;;
32663;SDS011;19847;48.670;9.242;2022-07-23T11:48:29;6.03;;;4.25;;
32663;SDS011;19847;48.670;9.242;2022-07-23T11:55:36;3.95;;;3.55;;
32663;SDS011;19847;48.670;9.242;2022-07-23T11:58:58;4.75;;;4.15;;
32663;SDS011;19847;48.670;9.242;2022-07-23T12:02:21;6.93;;;4.53;;
32663;SDS011;19847;48.670;9.242;2022-07-23T12:05:43;4.43;;;4.03;;
32663;SDS011;19847;48.670;9.242;2022-07-23T12:09:06;8.32;;;4.32;;
32663;SDS011;19847;48.670;9.242;2022-07-23T12:12:35;5.93;;;3.83;;
32663;SDS011;19847;48.670;9.242;2022-07-23T12:15:58;4.63;;;4.20;;
32663;SDS011;19847;48.670;9.242;2022-07-23T12:19:20;4.47;;;3.70;;
32663;SDS011;19847;48.670;9.242;2022-07-23T12:22:43;6.95;;;4.22;;
32663;SDS011;19847;48.670;9.242;2022-07-23T12:26:06;5.45;;;4.35;;
32663;SDS011;19847;48.670;9.242;2022-07-23T12:29:34;4.72;;;4.30;;
32663;SDS011;19847;48.670;9.242;2022-07-23T12:32:57;8.35;;;4.95;;
32663;SDS011;19847;48.670;9.242;2022-07-23T12:36:19;10.38;;;4.57;;
32663;SDS011;19847;48.670;9.242;2022-07-23T12:39:42;10.18;;;4.25;;
32663;SDS011;19847;48.670;9.242;2022-07-23T12:43:04;4.70;;;4.18;;
32663;SDS011;19847;48.670;9.242;2022-07-23T12:46:33;8.48;;;4.53;;
32663;SDS011;19847;48.670;9.242;2022-07-23T12:49:55;5.13;;;4.55;;
32663;SDS011;19847;48.670;9.242;2022-07-23T12:53:18;6.22;;;4.45;;
32663;SDS011;19847;48.670;9.242;2022-07-23T12:56:45;6.07;;;4.60;;
32663;SDS011;19847;48.670;9.242;2022-07-23T13:00:09;5.43;;;4.03;;
32663;SDS011;19847;48.670;9.242;2022-07-23T13:03:35;6.60;;;4.53;;
32663;SDS011;19847;48.670;9.242;2022-07-23T13:07:00;6.57;;;4.28;;
32663;SDS011;19847;48.670;9.242;2022-07-23T13:10:25;8.88;;;4.72;;
32663;SDS011;19847;48.670;9.242;2022-07-23T13:13:47;5.22;;;4.50;;
32663;SDS011;19847;48.670;9.242;2022-07-23T13:17:09;7.00;;;5.45;;
32663;SDS011;19847;48.670;9.242;2022-07-23T13:20:33;5.57;;;4.25;;
32663;SDS011;19847;48.670;9.242;2022-07-23T13:23:54;5.50;;;4.53;;
32663;SDS011;19847;48.670;9.242;2022-07-23T13:27:17;5.35;;;4.45;;
32663;SDS011;19847;48.670;9.242;2022-07-23T13:30:40;4.72;;;4.32;;
32663;SDS011;19847;48.670;9.242;2022-07-23T13:34:04;5.72;;;4.15;;
32663;SDS011;19847;48.670;9.242;2022-07-23T13:37:29;4.80;;;4.30;;
32663;SDS011;19847;48.670;9.242;2022-07-23T13:40:51;5.95;;;4.45;;
32663;SDS011;19847;48.670;9.242;2022-07-23T13:44:14;9.52;;;5.18;;
32663;SDS011;19847;48.670;9.242;2022-07-23T13:47:35;7.13;;;4.65;;
32663;SDS011;19847;48.670;9.242;2022-07-23T13:50:57;5.57;;;4.60;;
32663;SDS011;19847;48.670;9.242;2022-07-23T13:54:22;12.82;;;5.45;;
32663;SDS011;19847;48.670;9.242;2022-07-23T13:57:44;6.03;;;4.55;;
32663;SDS011;19847;48.670;9.242;2022-07-23T14:01:06;4.60;;;4.20;;
32663;SDS011;19847;48.670;9.242;2022-07-23T14:04:28;6.13;;;4.60;;
32663;SDS011;19847;48.670;9.242;2022-07-23T14:07:50;6.93;;;4.07;;
32663;SDS011;19847;48.670;9.242;2022-07-23T14:11:13;6.50;;;4.05;;
32663;SDS011;19847;48.670;9.242;2022-07-23T14:14:35;10.20;;;4.65;;
32663;SDS011;19847;48.670;9.242;2022-07-23T14:17:57;4.63;;;4.20;;
32663;SDS011;19847;48.670;9.242;2022-07-23T14:21:19;4.95;;;4.45;;
32663;SDS011;19847;48.670;9.242;2022-07-23T14:24:41;5.18;;;4.45;;
32663;SDS011;19847;48.670;9.242;2022-07-23T14:28:05;5.55;;;4.43;;
32663;SDS011;19847;48.670;9.242;2022-07-23T14:31:29;6.22;;;4.80;;
32663;SDS011;19847;48.670;9.242;2022-07-23T14:34:51;4.90;;;4.30;;
32663;SDS011;19847;48.670;9.242;2022-07-23T14:38:13;5.63;;;4.40;;
32663;SDS011;19847;48.670;9.242;2022-07-23T14:41:35;9.93;;;5.50;;
32663;SDS011;19847;48.670;9.242;2022-07-23T14:44:58;7.55;;;4.72;;
32663;SDS011;19847;48.670;9.242;2022-07-23T14:48:30;7.90;;;4.68;;
32663;SDS011;19847;48.670;9.242;2022-07-23T14:51:52;6.43;;;4.93;;
32663;SDS011;19847;48.670;9.242;2022-07-23T14:55:14;15.70;;;5.70;;
32663;SDS011;19847;48.670;9.242;2022-07-23T14:58:35;6.90;;;4.75;;
32663;SDS011;19847;48.670;9.242;2022-07-23T15:01:59;8.15;;;4.78;;
32663;SDS011;19847;48.670;9.242;2022-07-23T15:05:21;8.50;;;4.40;;
32663;SDS011;19847;48.670;9.242;2022-07-23T15:08:43;6.72;;;5.03;;
32663;SDS011;19847;48.670;9.242;2022-07-23T15:12:08;9.23;;;5.38;;
32663;SDS011;19847;48.670;9.242;2022-07-23T15:15:33;7.13;;;5.32;;
32663;SDS011;19847;48.670;9.242;2022-07-23T15:18:57;5.55;;;4.45;;
32663;SDS011;19847;48.670;9.242;2022-07-23T15:22:19;7.65;;;4.63;;
32663;SDS011;19847;48.670;9.242;2022-07-23T15:25:42;5.22;;;4.28;;
32663;SDS011;19847;48.670;9.242;2022-07-23T15:29:11;7.95;;;4.50;;
32663;SDS011;19847;48.670;9.242;2022-07-23T15:32:33;6.30;;;4.57;;
32663;SDS011;19847;48.670;9.242;2022-07-23T15:35:56;8.73;;;4.60;;
32663;SDS011;19847;48.670;9.242;2022-07-23T15:39:18;8.73;;;5.13;;
32663;SDS011;19847;48.670;9.242;2022-07-23T15:42:40;6.07;;;4.95;;
32663;SDS011;19847;48.670;9.242;2022-07-23T15:46:03;5.10;;;4.45;;
32663;SDS011;19847;48.670;9.242;2022-07-23T15:52:50;8.57;;;4.32;;
32663;SDS011;19847;48.670;9.242;2022-07-23T15:56:12;14.75;;;5.45;;
32663;SDS011;19847;48.670;9.242;2022-07-23T15:59:37;6.80;;;4.43;;
32663;SDS011;19847;48.670;9.242;2022-07-23T16:02:59;7.57;;;4.50;;
32663;SDS011;19847;48.670;9.242;2022-07-23T16:06:27;7.20;;;4.15;;
32663;SDS011;19847;48.670;9.242;2022-07-23T16:09:51;9.68;;;4.50;;
32663;SDS011;19847;48.670;9.242;2022-07-23T16:13:13;5.23;;;4.73;;
32663;SDS011;19847;48.670;9.242;2022-07-23T16:16:35;5.15;;;4.55;;
32663;SDS011;19847;48.670;9.242;2022-07-23T16:19:57;10.18;;;7.28;;
32663;SDS011;19847;48.670;9.242;2022-07-23T16:23:19;6.63;;;5.75;;
32663;SDS011;19847;48.670;9.242;2022-07-23T16:26:42;15.18;;;5.93;;
32663;SDS011;19847;48.670;9.242;2022-07-23T16:30:05;6.50;;;5.07;;
32663;SDS011;19847;48.670;9.242;2022-07-23T16:33:28;8.25;;;4.55;;
32663;SDS011;19847;48.670;9.242;2022-07-23T16:36:50;7.55;;;4.85;;
32663;SDS011;19847;48.670;9.242;2022-07-23T16:40:12;7.03;;;5.15;;
32663;SDS011;19847;48.670;9.242;2022-07-23T16:43:35;6.38;;;5.07;;
32663;SDS011;19847;48.670;9.242;2022-07-23T16:46:58;8.68;;;4.95;;
32663;SDS011;19847;48.670;9.242;2022-07-23T16:50:20;6.03;;;5.03;;
32663;SDS011;19847;48.670;9.242;2022-07-23T16:53:42;7.10;;;4.65;;
32663;SDS011;19847;48.670;9.242;2022-07-23T16:57:04;5.38;;;4.60;;
32663;SDS011;19847;48.670;9.242;2022-07-23T17:00:27;7.13;;;4.45;;
32663;SDS011;19847;48.670;9.242;2022-07-23T17:03:50;8.07;;;4.88;;
32663;SDS011;19847;48.670;9.242;2022-07-23T17:07:12;5.72;;;5.13;;
32663;SDS011;19847;48.670;9.242;2022-07-23T17:10:35;7.25;;;5.35;;
32663;SDS011;19847;48.670;9.242;2022-07-23T17:13:57;5.97;;;4.72;;
32663;SDS011;19847;48.670;9.242;2022-07-23T17:17:20;7.65;;;5.50;;
32663;SDS011;19847;48.670;9.242;2022-07-23T17:20:42;6.43;;;5.10;;
32663;SDS011;19847;48.670;9.242;2022-07-23T17:24:05;6.47;;;5.22;;
32663;SDS011;19847;48.670;9.242;2022-07-23T17:27:31;9.98;;;6.35;;
32663;SDS011;19847;48.670;9.242;2022-07-23T17:30:53;7.10;;;5.40;;
32663;SDS011;19847;48.670;9.242;2022-07-23T17:34:16;7.78;;;5.65;;
32663;SDS011;19847;48.670;9.242;2022-07-23T17:37:38;6.50;;;5.80;;
32663;SDS011;19847;48.670;9.242;2022-07-23T17:40:59;6.15;;;5.60;;
32663;SDS011;19847;48.670;9.242;2022-07-23T17:44:21;8.70;;;6.13;;
32663;SDS011;19847;48.670;9.242;2022-07-23T17:47:44;7.85;;;6.45;;
32663;SDS011;19847;48.670;9.242;2022-07-23T17:51:07;9.60;;;6.13;;
32663;SDS011;19847;48.670;9.242;2022-07-23T17:54:29;8.88;;;5.85;;
32663;SDS011;19847;48.670;9.242;2022-07-23T17:57:52;7.20;;;6.30;;
32663;SDS011;19847;48.670;9.242;2022-07-23T18:01:16;8.80;;;6.45;;
32663;SDS011;19847;48.670;9.242;2022-07-23T18:04:38;9.93;;;7.40;;
32663;SDS011;19847;48.670;9.242;2022-07-23T18:08:02;10.98;;;6.68;;
32663;SDS011;19847;48.670;9.242;2022-07-23T18:11:25;12.93;;;6.75;;
32663;SDS011;19847;48.670;9.242;2022-07-23T18:14:48;7.95;;;6.35;;
32663;SDS011;19847;48.670;9.242;2022-07-23T18:18:09;9.57;;;6.55;;
32663;SDS011;19847;48.670;9.242;2022-07-23T18:21:32;14.00;;;7.32;;
32663;SDS011;19847;48.670;9.242;2022-07-23T18:24:57;9.57;;;6.53;;
32663;SDS011;19847;48.670;9.242;2022-07-23T18:28:19;9.68;;;6.80;;
32663;SDS011;19847;48.670;9.242;2022-07-23T18:31:41;7.40;;;6.43;;
32663;SDS011;19847;48.670;9.242;2022-07-23T18:35:04;9.65;;;6.95;;
32663;SDS011;19847;48.670;9.242;2022-07-23T18:38:31;9.15;;;6.78;;
32663;SDS011;19847;48.670;9.242;2022-07-23T18:42:01;9.10;;;7.20;;
32663;SDS011;19847;48.670;9.242;2022-07-23T18:45:27;12.00;;;8.52;;
32663;SDS011;19847;48.670;9.242;2022-07-23T18:48:49;8.27;;;7.38;;
32663;SDS011;19847;48.670;9.242;2022-07-23T18:52:12;9.95;;;7.05;;
32663;SDS011;19847;48.670;9.242;2022-07-23T18:55:34;13.60;;;6.82;;
32663;SDS011;19847;48.670;9.242;2022-07-23T18:58:57;16.23;;;7.85;;
32663;SDS011;19847;48.670;9.242;2022-07-23T19:02:19;8.20;;;7.13;;
32663;SDS011;19847;48.670;9.242;2022-07-23T19:05:41;16.40;;;7.40;;
32663;SDS011;19847;48.670;9.242;2022-07-23T19:09:04;16.33;;;7.45;;
32663;SDS011;19847;48.670;9.242;2022-07-23T19:12:28;10.20;;;7.43;;
32663;SDS011;19847;48.670;9.242;2022-07-23T19:15:52;10.43;;;7.70;;
32663;SDS011;19847;48.670;9.242;2022-07-23T19:19:14;10.18;;;6.78;;
32663;SDS011;19847;48.670;9.242;2022-07-23T19:22:37;9.70;;;7.95;;
32663;SDS011;19847;48.670;9.242;2022-07-23T19:25:59;10.82;;;7.70;;
32663;SDS011;19847;48.670;9.242;2022-07-23T19:29:21;9.93;;;7.15;;
32663;SDS011;19847;48.670;9.242;2022-07-23T19:32:44;8.35;;;6.60;;
32663;SDS011;19847;48.670;9.242;2022-07-23T19:36:06;8.82;;;6.80;;
32663;SDS011;19847;48.670;9.242;2022-07-23T19:39:28;11.93;;;7.43;;
32663;SDS011;19847;48.670;9.242;2022-07-23T19:42:50;9.98;;;7.75;;
32663;SDS011;19847;48.670;9.242;2022-07-23T19:46:12;7.85;;;6.95;;
32663;SDS011;19847;48.670;9.242;2022-07-23T19:49:36;12.68;;;7.65;;
32663;SDS011;19847;48.670;9.242;2022-07-23T19:52:58;15.15;;;9.23;;
32663;SDS011;19847;48.670;9.242;2022-07-23T19:56:19;12.52;;;7.70;;
32663;SDS011;19847;48.670;9.242;2022-07-23T19:59:42;8.82;;;7.43;;
32663;SDS011;19847;48.670;9.242;2022-07-23T20:03:04;18.08;;;8.50;;
32663;SDS011;19847;48.670;9.242;2022-07-23T20:06:27;11.80;;;8.60;;
32663;SDS011;19847;48.670;9.242;2022-07-23T20:09:49;10.80;;;8.05;;
32663;SDS011;19847;48.670;9.242;2022-07-23T20:13:11;12.60;;;8.45;;
32663;SDS011;19847;48.670;9.242;2022-07-23T20:16:33;12.02;;;7.93;;
32663;SDS011;19847;48.670;9.242;2022-07-23T20:19:56;9.23;;;8.25;;
32663;SDS011;19847;48.670;9.242;2022-07-23T20:23:19;8.82;;;7.15;;
32663;SDS011;19847;48.670;9.242;2022-07-23T20:26:41;11.77;;;8.90;;
32663;SDS011;19847;48.670;9.242;2022-07-23T20:30:03;11.77;;;7.80;;
32663;SDS011;19847;48.670;9.242;2022-07-23T20:33:26;11.77;;;7.80;;
32663;SDS011;19847;48.670;9.242;2022-07-23T20:36:52;17.23;;;8.07;;